createdAt,value
2018-03-19T00:02:01.660Z,9.60
2018-03-19T00:04:30.169Z,2.08
2018-03-19T00:06:58.676Z,6.60
2018-03-19T00:09:27.206Z,4.15
2018-03-19T00:11:55.776Z,3.75
2018-03-19T00:14:24.383Z,1.95
2018-03-19T00:16:53.080Z,7.65
2018-03-19T00:19:21.772Z,5.40
2018-03-19T00:21:50.229Z,7.05
2018-03-19T00:24:19.665Z,8.38
2018-03-19T00:26:48.244Z,6.82
2018-03-19T00:29:16.724Z,3.75
2018-03-19T00:31:45.211Z,6.72
2018-03-19T00:34:13.813Z,2.95
2018-03-19T00:36:42.490Z,11.57
2018-03-19T00:39:11.941Z,5.37
2018-03-19T00:41:40.839Z,5.65
2018-03-19T00:44:09.418Z,8.02
2018-03-19T00:46:38.001Z,5.60
2018-03-19T00:49:06.637Z,2.00
2018-03-19T00:51:35.320Z,5.62
2018-03-19T00:54:03.852Z,7.75
2018-03-19T00:56:32.387Z,5.68
2018-03-19T00:59:00.825Z,3.10
2018-03-19T01:01:29.297Z,3.28
2018-03-19T01:03:57.794Z,5.20
2018-03-19T01:06:26.225Z,3.05
2018-03-19T01:08:54.662Z,3.85
2018-03-19T01:11:23.395Z,2.28
2018-03-19T01:13:51.869Z,4.37
2018-03-19T01:16:20.328Z,3.05
2018-03-19T01:18:48.979Z,3.25
2018-03-19T01:21:17.504Z,5.82
2018-03-19T01:23:45.930Z,4.85
2018-03-19T01:26:15.339Z,10.77
2018-03-19T01:28:43.834Z,9.85
2018-03-19T01:31:12.415Z,9.02
2018-03-19T01:33:41.267Z,8.68
2018-03-19T01:36:09.786Z,2.00
2018-03-19T01:38:38.776Z,7.78
2018-03-19T01:41:08.177Z,3.80
2018-03-19T01:43:36.898Z,3.85
2018-03-19T01:46:05.459Z,8.25
2018-03-19T01:48:34.137Z,8.98
2018-03-19T01:51:02.620Z,2.12
2018-03-19T01:53:31.090Z,8.80
2018-03-19T01:56:05.953Z,12.40
2018-03-19T01:58:34.517Z,2.30
2018-03-19T02:01:03.086Z,7.03
2018-03-19T02:03:31.676Z,9.05
2018-03-19T02:06:00.122Z,5.70
2018-03-19T02:08:28.592Z,4.90
2018-03-19T02:10:57.530Z,10.35
2018-03-19T02:13:26.011Z,7.00
2018-03-19T02:15:54.494Z,3.53
2018-03-19T02:18:23.487Z,2.35
2018-03-19T02:20:52.006Z,7.07
2018-03-19T02:23:20.648Z,3.80
2018-03-19T02:25:49.252Z,11.07
2018-03-19T02:28:17.750Z,5.78
2018-03-19T02:30:46.844Z,3.78
2018-03-19T02:33:15.491Z,3.67
2018-03-19T02:35:43.939Z,4.80
2018-03-19T02:38:12.457Z,12.23
2018-03-19T02:40:41.034Z,2.45
2018-03-19T02:43:09.465Z,7.50
2018-03-19T02:45:37.980Z,6.35
2018-03-19T02:48:06.570Z,6.78
2018-03-19T02:50:38.243Z,18.15
2018-03-19T02:53:06.729Z,4.47
2018-03-19T02:55:35.658Z,5.12
2018-03-19T02:58:04.204Z,5.80
2018-03-19T03:00:32.683Z,6.43
2018-03-19T03:03:01.164Z,3.42
2018-03-19T03:05:29.639Z,4.75
2018-03-19T03:07:58.121Z,7.37
2018-03-19T03:10:27.631Z,6.95
2018-03-19T03:12:56.173Z,4.45
2018-03-19T03:15:24.735Z,5.30
2018-03-19T03:17:53.689Z,3.58
2018-03-19T03:20:22.181Z,4.75
2018-03-19T03:22:50.754Z,5.70
2018-03-19T03:25:19.542Z,7.07
2018-03-19T03:27:48.171Z,3.65
2018-03-19T03:30:16.662Z,5.47
2018-03-19T03:32:45.290Z,4.12
2018-03-19T03:35:13.755Z,1.85
2018-03-19T03:37:42.253Z,5.85
2018-03-19T03:40:10.814Z,5.75
2018-03-19T03:42:39.269Z,5.07
2018-03-19T03:45:07.744Z,7.78
2018-03-19T03:47:36.283Z,4.85
2018-03-19T03:50:05.390Z,10.65
2018-03-19T03:52:33.894Z,8.18
2018-03-19T03:55:02.556Z,7.20
2018-03-19T03:57:31.134Z,6.12
2018-03-19T03:59:59.731Z,5.75
2018-03-19T04:02:29.123Z,7.95
2018-03-19T04:04:57.639Z,6.05
2018-03-19T04:07:26.152Z,8.27
2018-03-19T04:09:55.078Z,4.35
2018-03-19T04:12:23.589Z,8.45
2018-03-19T04:14:52.088Z,5.60
2018-03-19T04:17:20.562Z,13.32
2018-03-19T04:19:49.051Z,7.03
2018-03-19T04:22:17.516Z,6.82
2018-03-19T04:24:46.892Z,5.30
2018-03-19T04:27:15.444Z,5.80
2018-03-19T04:29:43.957Z,7.18
2018-03-19T04:32:12.750Z,6.40
2018-03-19T04:34:41.394Z,4.50
2018-03-19T04:37:09.910Z,11.55
2018-03-19T04:39:38.621Z,5.62
2018-03-19T04:42:08.119Z,10.07
2018-03-19T04:44:36.632Z,13.32
2018-03-19T04:47:05.391Z,6.87
2018-03-19T04:49:33.890Z,4.50
2018-03-19T04:52:02.469Z,3.65
2018-03-19T04:54:31.966Z,4.90
2018-03-19T04:57:00.540Z,4.40
2018-03-19T04:59:29.116Z,6.82
2018-03-19T05:01:57.597Z,6.45
2018-03-19T05:04:26.073Z,5.45
2018-03-19T05:06:54.555Z,8.23
2018-03-19T05:09:23.037Z,5.57
2018-03-19T05:11:51.564Z,6.32
2018-03-19T05:14:20.008Z,5.28
2018-03-19T05:16:48.577Z,14.77
2018-03-19T05:19:18.084Z,11.15
2018-03-19T05:21:46.574Z,10.95
2018-03-19T05:24:15.559Z,9.45
2018-03-19T05:26:44.035Z,6.00
2018-03-19T05:29:12.654Z,8.05
2018-03-19T05:31:41.273Z,6.65
2018-03-19T05:34:09.826Z,8.23
2018-03-19T05:36:38.380Z,12.93
2018-03-19T05:39:07.094Z,14.13
2018-03-19T05:41:35.958Z,7.45
2018-03-19T05:44:04.458Z,18.77
2018-03-19T05:46:33.120Z,5.07
2018-03-19T05:49:01.618Z,6.45
2018-03-19T05:51:31.282Z,23.20
2018-03-19T05:53:59.814Z,8.93
2018-03-19T05:56:28.299Z,9.18
2018-03-19T05:58:56.775Z,5.20
2018-03-19T06:01:25.283Z,4.90
2018-03-19T06:03:53.771Z,8.10
2018-03-19T06:06:22.197Z,11.10
2018-03-19T06:08:52.049Z,13.27
2018-03-19T06:11:20.534Z,14.60
2018-03-19T06:13:49.725Z,5.93
2018-03-19T06:16:18.409Z,7.15
2018-03-19T06:18:47.004Z,7.40
2018-03-19T06:21:15.439Z,14.55
2018-03-19T06:23:44.477Z,8.38
2018-03-19T06:26:12.927Z,8.60
2018-03-19T06:28:41.450Z,6.87
2018-03-19T06:31:09.987Z,6.97
2018-03-19T06:33:38.562Z,9.35
2018-03-19T06:36:07.121Z,20.58
2018-03-19T06:38:36.616Z,8.05
2018-03-19T06:41:05.207Z,15.25
2018-03-19T06:43:33.766Z,13.65
2018-03-19T06:46:03.280Z,7.35
2018-03-19T06:48:32.076Z,8.15
2018-03-19T06:51:00.652Z,8.80
2018-03-19T06:53:31.670Z,8.60
2018-03-19T06:56:01.219Z,4.82
2018-03-19T06:58:30.131Z,6.25
2018-03-19T07:00:59.657Z,5.97
2018-03-19T07:03:28.130Z,11.90
2018-03-19T07:05:56.666Z,8.68
2018-03-19T07:08:26.171Z,8.73
2018-03-19T07:10:54.663Z,22.23
2018-03-19T07:13:23.238Z,6.72
2018-03-19T07:15:52.129Z,7.60
2018-03-19T07:18:20.626Z,20.58
2018-03-19T07:20:49.099Z,16.60
2018-03-19T07:23:17.853Z,9.23
2018-03-19T07:25:46.321Z,7.90
2018-03-19T07:28:14.952Z,4.95
2018-03-19T07:30:44.151Z,7.03
2018-03-19T07:33:12.722Z,5.45
2018-03-19T07:35:41.202Z,5.82
2018-03-19T07:38:10.941Z,8.65
2018-03-19T07:40:39.926Z,17.90
2018-03-19T07:43:08.526Z,4.12
2018-03-19T07:45:37.861Z,6.50
2018-03-19T07:48:06.576Z,9.57
2018-03-19T07:50:35.189Z,16.17
2018-03-19T07:53:03.988Z,8.32
2018-03-19T07:55:33.503Z,6.60
2018-03-19T07:58:02.251Z,8.93
2018-03-19T08:00:32.864Z,5.28
2018-03-19T08:03:01.504Z,8.48
2018-03-19T08:05:30.091Z,13.80
2018-03-19T08:07:58.881Z,6.60
2018-03-19T08:10:27.772Z,5.57
2018-03-19T08:12:56.256Z,4.78
2018-03-19T08:15:24.789Z,5.93
2018-03-19T08:17:53.261Z,7.47
2018-03-19T08:20:22.776Z,9.30
2018-03-19T08:22:51.657Z,10.73
2018-03-19T08:25:20.133Z,9.25
2018-03-19T08:27:48.637Z,8.93
2018-03-19T08:30:17.283Z,8.10
2018-03-19T08:32:45.746Z,8.45
2018-03-19T08:35:14.326Z,29.00
2018-03-19T08:37:42.922Z,6.25
2018-03-19T08:40:11.533Z,11.55
2018-03-19T08:42:40.186Z,17.40
2018-03-19T08:45:08.879Z,13.52
2018-03-19T08:47:37.459Z,4.60
2018-03-19T08:50:06.190Z,21.30
2018-03-19T08:52:34.870Z,6.37
2018-03-19T08:55:03.657Z,10.43
2018-03-19T08:57:33.937Z,5.32
2018-03-19T09:00:03.479Z,13.25
2018-03-19T09:02:32.113Z,5.05
2018-03-19T09:05:01.989Z,5.32
2018-03-19T09:07:30.725Z,13.25
2018-03-19T09:09:59.385Z,11.23
2018-03-19T09:12:27.921Z,9.45
2018-03-19T09:14:56.718Z,16.42
2018-03-19T09:17:25.234Z,8.25
2018-03-19T09:19:53.858Z,7.93
2018-03-19T09:22:22.595Z,13.30
2018-03-19T09:24:51.074Z,10.02
2018-03-19T09:27:19.536Z,10.23
2018-03-19T09:29:48.221Z,19.62
2018-03-19T09:32:16.812Z,6.15
2018-03-19T09:34:45.391Z,8.20
2018-03-19T09:37:15.928Z,29.75
2018-03-19T09:39:45.043Z,14.13
2018-03-19T09:42:13.699Z,10.95
2018-03-19T09:44:43.135Z,5.57
2018-03-19T09:47:11.924Z,5.22
2018-03-19T09:49:40.437Z,9.07
2018-03-19T09:52:09.071Z,9.75
2018-03-19T09:54:37.670Z,10.73
2018-03-19T09:57:06.262Z,8.50
2018-03-19T09:59:35.005Z,11.80
2018-03-19T10:02:03.567Z,8.07
2018-03-19T10:04:32.094Z,13.45
2018-03-19T10:07:01.143Z,9.05
2018-03-19T10:09:29.692Z,10.82
2018-03-19T10:11:58.240Z,5.78
2018-03-19T10:14:26.815Z,9.07
2018-03-19T10:16:55.269Z,24.43
2018-03-19T10:19:23.775Z,10.70
2018-03-19T10:21:52.446Z,7.60
2018-03-19T10:24:20.951Z,9.03
2018-03-19T10:26:49.437Z,15.25
2018-03-19T10:29:18.959Z,14.02
2018-03-19T10:31:47.520Z,12.45
2018-03-19T10:34:16.112Z,9.77
2018-03-19T10:36:44.769Z,11.18
2018-03-19T10:39:13.390Z,16.02
2018-03-19T10:41:42.062Z,13.57
2018-03-19T10:44:10.741Z,11.45
2018-03-19T10:46:39.434Z,9.05
2018-03-19T10:49:08.422Z,7.28
2018-03-19T10:51:38.027Z,8.35
2018-03-19T10:54:07.365Z,21.37
2018-03-19T10:56:36.117Z,9.07
2018-03-19T10:59:05.314Z,12.10
2018-03-19T11:01:39.833Z,10.90
2018-03-19T11:04:11.616Z,9.35
2018-03-19T11:06:45.702Z,10.93
2018-03-19T11:09:20.002Z,12.60
2018-03-19T11:11:48.716Z,5.50
2018-03-19T11:14:17.235Z,7.85
2018-03-19T11:16:46.177Z,10.10
2018-03-19T11:19:14.670Z,10.02
2018-03-19T11:21:43.508Z,8.27
2018-03-19T11:24:12.349Z,14.38
2018-03-19T11:26:40.932Z,7.18
2018-03-19T11:29:09.520Z,11.65
2018-03-19T11:31:38.202Z,7.57
2018-03-19T11:34:06.791Z,7.65
2018-03-19T11:36:35.466Z,13.98
2018-03-19T11:39:04.263Z,12.50
2018-03-19T11:41:33.134Z,8.10
2018-03-19T11:44:02.178Z,8.00
2018-03-19T11:46:32.383Z,6.03
2018-03-19T11:49:00.955Z,7.53
2018-03-19T11:51:29.433Z,11.30
2018-03-19T11:53:58.029Z,6.50
2018-03-19T11:56:26.574Z,7.47
2018-03-19T11:58:55.080Z,16.23
2018-03-19T12:01:25.188Z,8.00
2018-03-19T12:03:55.016Z,8.23
2018-03-19T12:06:23.956Z,6.03
2018-03-19T12:08:53.468Z,6.18
2018-03-19T12:11:23.057Z,9.23
2018-03-19T12:13:51.602Z,9.10
2018-03-19T12:16:20.157Z,8.93
2018-03-19T12:18:48.630Z,7.18
2018-03-19T12:21:17.158Z,5.63
2018-03-19T12:23:45.653Z,8.57
2018-03-19T12:26:14.197Z,24.98
2018-03-19T12:28:42.881Z,7.62
2018-03-19T12:31:11.895Z,8.70
2018-03-19T12:33:40.590Z,18.48
2018-03-19T12:36:09.261Z,12.23
2018-03-19T12:38:38.053Z,9.70
2018-03-19T12:41:06.721Z,10.73
2018-03-19T12:43:35.332Z,14.20
2018-03-19T12:46:04.755Z,13.63
2018-03-19T12:48:33.309Z,6.80
2018-03-19T12:51:02.119Z,6.57
2018-03-19T12:53:30.766Z,4.70
2018-03-19T12:55:59.444Z,6.77
2018-03-19T12:58:27.965Z,6.37
2018-03-19T13:00:56.521Z,11.80
2018-03-19T13:03:24.997Z,13.67
2018-03-19T13:05:53.428Z,7.87
2018-03-19T13:08:23.095Z,35.73
2018-03-19T13:10:52.038Z,8.70
2018-03-19T13:13:20.469Z,6.80
2018-03-19T13:15:49.161Z,6.47
2018-03-19T13:18:17.623Z,10.20
2018-03-19T13:20:46.137Z,15.17
2018-03-19T13:23:15.002Z,7.53
2018-03-19T13:25:43.611Z,8.60
2018-03-19T13:28:12.302Z,7.77
2018-03-19T13:30:40.993Z,10.03
2018-03-19T13:33:12.107Z,9.53
2018-03-19T13:35:40.998Z,5.67
2018-03-19T13:38:09.790Z,8.53
2018-03-19T13:40:38.473Z,7.50
2018-03-19T13:43:07.153Z,8.40
2018-03-19T13:45:36.667Z,5.93
2018-03-19T13:50:40.283Z,13.73
2018-03-19T13:53:11.006Z,9.03
2018-03-19T13:55:39.593Z,4.85
2018-03-19T13:58:08.404Z,6.15
2018-03-19T14:00:37.276Z,15.63
2018-03-19T14:03:06.076Z,11.65
2018-03-19T14:05:35.468Z,6.37
2018-03-19T14:08:04.663Z,5.57
2018-03-19T14:10:33.247Z,8.75
2018-03-19T14:13:02.854Z,6.03
2018-03-19T14:15:31.670Z,8.05
2018-03-19T14:18:00.123Z,6.97
2018-03-19T14:20:28.699Z,8.77
2018-03-19T14:22:57.180Z,7.10
2018-03-19T14:25:25.671Z,4.35
2018-03-19T14:27:54.426Z,5.07
2018-03-19T14:30:22.803Z,6.35
2018-03-19T14:32:51.749Z,6.75
2018-03-19T14:35:20.745Z,5.32
2018-03-19T14:37:50.424Z,6.80
2018-03-19T14:40:18.912Z,6.72
2018-03-19T14:42:47.681Z,7.97
2018-03-19T14:45:16.427Z,5.55
2018-03-19T14:47:45.513Z,3.25
2018-03-19T14:50:14.158Z,8.10
2018-03-19T14:52:42.697Z,6.50
2018-03-19T14:55:11.457Z,8.25
2018-03-19T14:57:40.117Z,5.57
2018-03-19T15:00:08.929Z,14.18
2018-03-19T15:02:37.745Z,7.18
2018-03-19T15:05:07.242Z,10.35
2018-03-19T15:07:37.680Z,5.82
2018-03-19T15:10:06.310Z,9.32
2018-03-19T15:12:35.222Z,10.57
2018-03-19T15:15:04.040Z,13.27
2018-03-19T15:17:32.627Z,5.93
2018-03-19T15:20:01.314Z,7.32
2018-03-19T15:22:29.839Z,10.88
2018-03-19T15:24:58.346Z,5.15
2018-03-19T15:27:26.945Z,8.13
2018-03-19T15:29:55.489Z,7.20
2018-03-19T15:32:23.924Z,6.50
2018-03-19T15:34:52.708Z,5.35
2018-03-19T15:37:21.142Z,5.25
2018-03-19T15:39:49.608Z,7.07
2018-03-19T15:42:19.013Z,6.75
2018-03-19T15:44:47.508Z,4.07
2018-03-19T15:47:15.945Z,7.95
2018-03-19T15:49:44.899Z,11.48
2018-03-19T15:52:13.472Z,10.75
2018-03-19T15:54:42.002Z,10.40
2018-03-19T15:57:11.042Z,8.02
2018-03-19T15:59:39.524Z,9.80
2018-03-19T16:02:08.098Z,8.20
2018-03-19T16:04:37.190Z,22.17
2018-03-19T16:07:05.813Z,14.77
2018-03-19T16:09:34.494Z,10.85
2018-03-19T16:12:03.963Z,12.48
2018-03-19T16:14:32.615Z,6.72
2018-03-19T16:17:01.145Z,7.97
2018-03-19T16:19:30.232Z,7.32
2018-03-19T16:21:58.686Z,8.95
2018-03-19T16:24:27.190Z,4.25
2018-03-19T16:26:56.036Z,5.70
2018-03-19T16:29:24.562Z,7.30
2018-03-19T16:31:53.042Z,6.97
2018-03-19T16:34:21.667Z,4.97
2018-03-19T16:36:50.225Z,6.43
2018-03-19T16:39:18.788Z,7.40
2018-03-19T16:41:47.385Z,9.90
2018-03-19T16:44:15.857Z,6.18
2018-03-19T16:46:44.488Z,10.95
2018-03-19T16:49:13.308Z,6.35
2018-03-19T16:51:42.240Z,11.63
2018-03-19T16:54:10.897Z,7.07
2018-03-19T16:59:14.167Z,4.30
2018-03-19T17:01:43.650Z,8.88
2018-03-19T17:04:12.343Z,6.05
2018-03-19T17:06:41.221Z,5.85
2018-03-19T17:09:10.401Z,4.95
2018-03-19T17:11:39.858Z,5.40
2018-03-19T17:14:08.753Z,3.30
2018-03-19T17:16:37.712Z,5.00
2018-03-19T17:19:06.514Z,7.80
2018-03-19T17:21:40.816Z,11.00
2018-03-19T17:24:10.962Z,10.52
2018-03-19T17:26:52.555Z,19.50
2018-03-19T17:29:21.492Z,7.43
2018-03-19T17:31:50.070Z,7.15
2018-03-19T17:34:18.623Z,11.00
2018-03-19T17:36:47.182Z,6.97
2018-03-19T17:39:15.865Z,10.85
2018-03-19T17:41:44.512Z,6.25
2018-03-19T17:44:13.146Z,7.40
2018-03-19T17:46:41.722Z,5.95
2018-03-19T17:49:10.470Z,6.80
2018-03-19T17:51:39.092Z,5.28
2018-03-19T17:54:07.702Z,8.55
2018-03-19T17:56:36.389Z,8.45
2018-03-19T17:59:05.542Z,4.30
2018-03-19T18:01:34.059Z,4.72
2018-03-19T18:04:02.896Z,7.43
2018-03-19T18:06:31.492Z,6.85
2018-03-19T18:08:59.951Z,4.70
2018-03-19T18:11:28.886Z,3.95
2018-03-19T18:13:57.377Z,6.12
2018-03-19T18:16:25.922Z,7.30
2018-03-19T18:18:54.558Z,8.70
2018-03-19T18:21:23.084Z,7.07
2018-03-19T18:23:51.616Z,12.02
2018-03-19T18:26:20.533Z,6.68
2018-03-19T18:28:49.026Z,4.70
2018-03-19T18:31:17.614Z,7.22
2018-03-19T18:33:46.778Z,5.85
2018-03-19T18:36:15.437Z,5.93
2018-03-19T18:38:44.123Z,7.28
2018-03-19T18:41:12.980Z,9.43
2018-03-19T18:43:41.828Z,4.57
2018-03-19T18:46:10.468Z,6.20
2018-03-19T18:48:39.257Z,4.28
2018-03-19T18:51:08.067Z,7.28
2018-03-19T18:53:37.472Z,9.10
2018-03-19T18:56:06.278Z,7.87
2018-03-19T18:58:35.045Z,7.25
2018-03-19T19:01:03.753Z,10.43
2018-03-19T19:03:34.421Z,7.03
2018-03-19T19:06:03.010Z,7.12
2018-03-19T19:08:31.492Z,8.27
2018-03-19T19:11:01.065Z,7.22
2018-03-19T19:13:29.482Z,7.43
2018-03-19T19:15:58.315Z,7.95
2018-03-19T19:18:27.871Z,6.05
2018-03-19T19:20:56.291Z,8.93
2018-03-19T19:23:25.148Z,4.05
2018-03-19T19:25:54.070Z,6.50
2018-03-19T19:28:22.768Z,7.40
2018-03-19T19:30:51.300Z,7.00
2018-03-19T19:33:20.958Z,9.30
2018-03-19T19:35:49.504Z,5.35
2018-03-19T19:38:17.941Z,16.87
2018-03-19T19:40:46.520Z,7.30
2018-03-19T19:43:15.148Z,9.90
2018-03-19T19:45:44.240Z,15.85
2018-03-19T19:48:13.106Z,10.32
2018-03-19T19:50:41.700Z,10.25
2018-03-19T19:53:11.038Z,6.90
2018-03-19T19:55:41.364Z,19.80
2018-03-19T19:58:09.930Z,11.65
2018-03-19T20:00:38.769Z,10.30
2018-03-19T20:03:07.963Z,20.35
2018-03-19T20:05:38.402Z,21.17
2018-03-19T20:08:07.009Z,23.05
2018-03-19T20:10:36.890Z,8.63
2018-03-19T20:13:07.028Z,6.10
2018-03-19T20:15:36.501Z,15.77
2018-03-19T20:18:05.297Z,20.98
2018-03-19T20:20:36.127Z,17.52
2018-03-19T20:23:05.333Z,21.65
2018-03-19T20:25:34.142Z,13.45
2018-03-19T20:28:03.892Z,22.05
2018-03-19T20:30:34.011Z,20.50
2018-03-19T20:33:03.003Z,17.52
2018-03-19T20:35:31.727Z,10.85
2018-03-19T20:38:00.450Z,14.60
2018-03-19T20:40:29.862Z,10.10
2018-03-19T20:42:58.467Z,27.60
2018-03-19T20:45:27.194Z,18.87
2018-03-19T20:47:56.632Z,10.02
2018-03-19T20:50:25.069Z,19.42
2018-03-19T20:52:53.593Z,19.60
2018-03-19T20:55:22.734Z,18.05
2018-03-19T20:57:51.183Z,15.15
2018-03-19T21:00:20.267Z,18.92
2018-03-19T21:02:49.030Z,26.62
2018-03-19T21:05:17.810Z,13.75
2018-03-19T21:07:46.925Z,11.98
2018-03-19T21:10:15.619Z,25.02
2018-03-19T21:12:44.144Z,12.45
2018-03-19T21:15:13.063Z,26.58
2018-03-19T21:17:42.757Z,20.33
2018-03-19T21:20:11.428Z,17.92
2018-03-19T21:22:41.180Z,19.75
2018-03-19T21:25:11.350Z,21.95
2018-03-19T21:27:40.836Z,19.27
2018-03-19T21:30:09.834Z,28.77
2018-03-19T21:32:38.561Z,24.65
2018-03-19T21:35:07.742Z,17.65
2018-03-19T21:37:36.280Z,32.05
2018-03-19T21:40:05.048Z,19.55
2018-03-19T21:42:34.554Z,20.70
2018-03-19T21:45:03.309Z,21.08
2018-03-19T21:47:31.898Z,7.85
2018-03-19T21:50:00.369Z,18.80
2018-03-19T21:52:29.690Z,14.05
2018-03-19T21:54:58.332Z,30.08
2018-03-19T21:57:27.008Z,29.60
2018-03-19T21:59:55.616Z,28.60
2018-03-19T22:02:24.754Z,15.07
2018-03-19T22:04:53.283Z,13.25
2018-03-19T22:07:24.034Z,23.83
2018-03-19T22:09:52.834Z,19.67
2018-03-19T22:12:21.381Z,34.35
2018-03-19T22:14:50.084Z,14.87
2018-03-19T22:17:18.646Z,13.80
2018-03-19T22:19:47.138Z,43.05
2018-03-19T22:22:15.733Z,22.75
2018-03-19T22:24:45.267Z,15.90
2018-03-19T22:27:14.341Z,11.95
2018-03-19T22:29:42.952Z,18.15
2018-03-19T22:32:11.940Z,19.12
2018-03-19T22:34:40.596Z,20.75
2018-03-19T22:37:09.112Z,39.53
2018-03-19T22:39:38.005Z,23.05
2018-03-19T22:42:07.777Z,34.67
2018-03-19T22:44:36.676Z,35.15
2018-03-19T22:47:05.800Z,20.00
2018-03-19T22:49:34.359Z,45.40
2018-03-19T22:52:03.139Z,25.85
2018-03-19T22:54:32.435Z,18.73
2018-03-19T22:57:01.064Z,34.47
2018-03-19T22:59:29.493Z,21.90
2018-03-19T23:01:58.121Z,21.65
2018-03-19T23:04:38.291Z,30.83
2018-03-19T23:07:07.689Z,53.60
2018-03-19T23:09:36.591Z,35.75
2018-03-19T23:12:07.685Z,29.30
2018-03-19T23:14:37.436Z,36.58
2018-03-19T23:17:06.214Z,20.55
2018-03-19T23:19:34.973Z,27.58
2018-03-19T23:22:04.267Z,31.60
2018-03-19T23:24:32.755Z,41.70
2018-03-19T23:27:01.236Z,27.95
2018-03-19T23:29:29.882Z,27.08
2018-03-19T23:31:58.350Z,37.83
2018-03-19T23:34:26.845Z,17.75
2018-03-19T23:36:56.993Z,40.03
2018-03-19T23:39:26.235Z,33.67
2018-03-19T23:41:54.657Z,24.33
2018-03-19T23:44:23.571Z,53.75
2018-03-19T23:46:52.147Z,19.05
2018-03-19T23:49:20.779Z,31.52
2018-03-19T23:51:49.418Z,35.10
2018-03-19T23:54:29.939Z,27.00
2018-03-19T23:56:58.525Z,43.85
2018-03-19T23:59:35.174Z,27.30
